sensor_id;sensor_type;location;lat;lon;timestamp;temperature;humidity
12460;DHT22;6295;49.452;8.466;2024-03-02T09:14:18;8.30;99.90
12460;DHT22;6295;49.452;8.466;2024-03-02T09:18:22;8.50;99.90
12460;DHT22;6295;49.452;8.466;2024-03-02T09:22:25;8.80;99.90
12460;DHT22;6295;49.452;8.466;2024-03-02T09:26:27;9.00;99.90
12460;DHT22;6295;49.452;8.466;2024-03-02T09:30:30;9.20;99.90
12460;DHT22;6295;49.452;8.466;2024-03-02T09:38:35;9.60;99.90
12460;DHT22;6295;49.452;8.466;2024-03-02T09:42:37;9.70;99.90
12460;DHT22;6295;49.452;8.466;2024-03-02T09:46:41;9.80;99.90
12460;DHT22;6295;49.452;8.466;2024-03-02T09:50:45;10.00;99.90
12460;DHT22;6295;49.452;8.466;2024-03-02T09:54:47;10.10;99.90
12460;DHT22;6295;49.452;8.466;2024-03-02T09:58:50;10.30;99.90
12460;DHT22;6295;49.452;8.466;2024-03-02T10:02:53;10.50;99.90
12460;DHT22;6295;49.452;8.466;2024-03-02T10:07:10;10.70;99.90
12460;DHT22;6295;49.452;8.466;2024-03-02T10:11:26;10.80;99.90
12460;DHT22;6295;49.452;8.466;2024-03-02T10:15:29;11.00;99.90
12460;DHT22;6295;49.452;8.466;2024-03-02T10:19:34;11.10;99.90
12460;DHT22;6295;49.452;8.466;2024-03-02T10:23:37;11.20;99.90
12460;DHT22;6295;49.452;8.466;2024-03-02T10:27:40;11.30;99.90
12460;DHT22;6295;49.452;8.466;2024-03-02T10:31:43;11.40;99.90
12460;DHT22;6295;49.452;8.466;2024-03-02T10:35:48;11.60;99.90
12460;DHT22;6295;49.452;8.466;2024-03-02T10:39:52;11.80;99.90
12460;DHT22;6295;49.452;8.466;2024-03-02T10:43:55;11.90;99.90
12460;DHT22;6295;49.452;8.466;2024-03-02T10:48:01;12.10;99.90
12460;DHT22;6295;49.452;8.466;2024-03-02T10:52:05;12.20;99.90
12460;DHT22;6295;49.452;8.466;2024-03-02T10:56:13;12.30;99.90
12460;DHT22;6295;49.452;8.466;2024-03-02T11:00:20;12.40;99.90
12460;DHT22;6295;49.452;8.466;2024-03-02T11:04:27;12.50;99.90
12460;DHT22;6295;49.452;8.466;2024-03-02T11:08:31;12.60;99.90
12460;DHT22;6295;49.452;8.466;2024-03-02T11:12:38;12.80;99.90
12460;DHT22;6295;49.452;8.466;2024-03-02T11:16:40;12.80;99.90
12460;DHT22;6295;49.452;8.466;2024-03-02T11:20:43;12.90;99.90
12460;DHT22;6295;49.452;8.466;2024-03-02T11:24:52;13.00;99.90
12460;DHT22;6295;49.452;8.466;2024-03-02T11:28:54;13.10;99.90
12460;DHT22;6295;49.452;8.466;2024-03-02T11:32:59;13.20;99.90
12460;DHT22;6295;49.452;8.466;2024-03-02T11:37:05;13.30;99.90
12460;DHT22;6295;49.452;8.466;2024-03-02T11:45:16;13.50;99.90
12460;DHT22;6295;49.452;8.466;2024-03-02T11:53:39;13.60;99.90
12460;DHT22;6295;49.452;8.466;2024-03-02T11:57:45;13.70;99.90
12460;DHT22;6295;49.452;8.466;2024-03-02T12:01:49;13.70;99.90
12460;DHT22;6295;49.452;8.466;2024-03-02T12:05:53;13.90;99.90
12460;DHT22;6295;49.452;8.466;2024-03-02T12:10:03;13.90;99.90
12460;DHT22;6295;49.452;8.466;2024-03-02T12:14:13;14.00;99.90
12460;DHT22;6295;49.452;8.466;2024-03-02T12:18:18;14.10;99.90
12460;DHT22;6295;49.452;8.466;2024-03-02T12:22:25;14.10;99.90
12460;DHT22;6295;49.452;8.466;2024-03-02T12:30:36;14.20;99.90
12460;DHT22;6295;49.452;8.466;2024-03-02T12:38:43;14.30;99.90
12460;DHT22;6295;49.452;8.466;2024-03-02T12:42:47;14.30;99.90
12460;DHT22;6295;49.452;8.466;2024-03-02T12:46:51;14.30;99.90
12460;DHT22;6295;49.452;8.466;2024-03-02T12:50:54;14.40;99.90
12460;DHT22;6295;49.452;8.466;2024-03-02T12:54:56;14.50;99.90
12460;DHT22;6295;49.452;8.466;2024-03-02T12:58:59;14.50;99.90
12460;DHT22;6295;49.452;8.466;2024-03-02T13:03:03;14.60;99.90
12460;DHT22;6295;49.452;8.466;2024-03-02T13:07:08;14.60;99.90
12460;DHT22;6295;49.452;8.466;2024-03-02T13:11:16;14.70;99.90
12460;DHT22;6295;49.452;8.466;2024-03-02T13:15:18;14.70;99.90
12460;DHT22;6295;49.452;8.466;2024-03-02T13:19:23;14.70;99.90
12460;DHT22;6295;49.452;8.466;2024-03-02T13:23:26;14.80;99.90
12460;DHT22;6295;49.452;8.466;2024-03-02T13:27:30;14.80;99.90
12460;DHT22;6295;49.452;8.466;2024-03-02T13:31:32;14.80;99.90
12460;DHT22;6295;49.452;8.466;2024-03-02T13:35:36;14.80;99.90
12460;DHT22;6295;49.452;8.466;2024-03-02T13:39:38;14.90;99.90
12460;DHT22;6295;49.452;8.466;2024-03-02T13:43:42;14.90;99.90
12460;DHT22;6295;49.452;8.466;2024-03-02T13:47:46;15.00;99.90
12460;DHT22;6295;49.452;8.466;2024-03-02T13:51:49;15.00;99.90
12460;DHT22;6295;49.452;8.466;2024-03-02T14:03:56;15.00;99.90
12460;DHT22;6295;49.452;8.466;2024-03-02T14:08:00;15.00;99.90
12460;DHT22;6295;49.452;8.466;2024-03-02T14:12:03;15.00;99.90
12460;DHT22;6295;49.452;8.466;2024-03-02T14:16:06;15.00;99.90
12460;DHT22;6295;49.452;8.466;2024-03-02T14:20:10;15.00;99.90
12460;DHT22;6295;49.452;8.466;2024-03-02T14:24:15;15.10;99.90
12460;DHT22;6295;49.452;8.466;2024-03-02T14:28:17;15.10;99.90
12460;DHT22;6295;49.452;8.466;2024-03-02T14:32:20;15.10;99.90
12460;DHT22;6295;49.452;8.466;2024-03-02T14:36:24;15.20;99.90
12460;DHT22;6295;49.452;8.466;2024-03-02T14:40:28;15.30;99.90
12460;DHT22;6295;49.452;8.466;2024-03-02T14:44:31;15.30;99.90
12460;DHT22;6295;49.452;8.466;2024-03-02T14:48:34;15.30;99.90
12460;DHT22;6295;49.452;8.466;2024-03-02T14:52:36;15.20;99.90
12460;DHT22;6295;49.452;8.466;2024-03-02T14:56:40;15.20;99.90
12460;DHT22;6295;49.452;8.466;2024-03-02T15:00:43;15.20;99.90
12460;DHT22;6295;49.452;8.466;2024-03-02T15:04:45;15.10;99.90
12460;DHT22;6295;49.452;8.466;2024-03-02T15:08:48;14.90;99.90
12460;DHT22;6295;49.452;8.466;2024-03-02T15:12:52;14.80;99.90
12460;DHT22;6295;49.452;8.466;2024-03-02T15:16:54;14.80;99.90
12460;DHT22;6295;49.452;8.466;2024-03-02T15:20:57;14.70;99.90
12460;DHT22;6295;49.452;8.466;2024-03-02T15:24:59;14.50;99.90
12460;DHT22;6295;49.452;8.466;2024-03-02T15:29:02;14.50;99.90
12460;DHT22;6295;49.452;8.466;2024-03-02T15:33:04;14.40;99.90
12460;DHT22;6295;49.452;8.466;2024-03-02T15:37:06;14.30;99.90
12460;DHT22;6295;49.452;8.466;2024-03-02T15:41:09;14.30;99.90
12460;DHT22;6295;49.452;8.466;2024-03-02T15:49:15;14.10;99.90
12460;DHT22;6295;49.452;8.466;2024-03-02T15:53:17;14.10;99.90
12460;DHT22;6295;49.452;8.466;2024-03-02T15:57:20;14.00;99.90
12460;DHT22;6295;49.452;8.466;2024-03-02T16:01:25;14.00;99.90
12460;DHT22;6295;49.452;8.466;2024-03-02T16:09:31;13.90;99.90
12460;DHT22;6295;49.452;8.466;2024-03-02T16:17:38;13.70;99.90
12460;DHT22;6295;49.452;8.466;2024-03-02T16:25:44;13.60;99.90
12460;DHT22;6295;49.452;8.466;2024-03-02T16:29:47;13.50;99.90
12460;DHT22;6295;49.452;8.466;2024-03-02T16:33:52;13.40;99.90
12460;DHT22;6295;49.452;8.466;2024-03-02T16:37:55;13.40;99.90
12460;DHT22;6295;49.452;8.466;2024-03-02T16:42:00;13.30;99.90
12460;DHT22;6295;49.452;8.466;2024-03-02T16:46:03;13.30;99.90
12460;DHT22;6295;49.452;8.466;2024-03-02T16:50:08;13.20;99.90
